createdAt,value
2018-03-24T00:00:23.580Z,100011
2018-03-24T00:02:06.705Z,100002
2018-03-24T00:03:49.842Z,100023
2018-03-24T00:05:32.978Z,100012
2018-03-24T00:07:16.889Z,100014
2018-03-24T00:09:00.037Z,100008
2018-03-24T00:10:43.939Z,100011
2018-03-24T00:12:27.172Z,100006
2018-03-24T00:14:10.296Z,100004
2018-03-24T00:15:54.181Z,100004
2018-03-24T00:17:37.344Z,100004
2018-03-24T00:19:20.468Z,100009
2018-03-24T00:21:04.348Z,100012
2018-03-24T00:22:47.461Z,100008
2018-03-24T00:24:30.609Z,100005
2018-03-24T00:26:13.724Z,100003
2018-03-24T00:27:56.828Z,100003
2018-03-24T00:29:39.967Z,100007
2018-03-24T00:31:23.119Z,100004
2018-03-24T00:33:06.262Z,100010
2018-03-24T00:34:49.391Z,100005
2018-03-24T00:36:32.647Z,100005
2018-03-24T00:38:15.872Z,100008
2018-03-24T00:39:59.771Z,100007
2018-03-24T00:41:42.874Z,100007
2018-03-24T00:43:25.981Z,100005
2018-03-24T00:45:09.119Z,100002
2018-03-24T00:46:52.254Z,100009
2018-03-24T00:48:35.360Z,100000
2018-03-24T00:50:18.490Z,100001
2018-03-24T00:52:02.362Z,99998
2018-03-24T00:53:45.486Z,99990
2018-03-24T00:55:28.605Z,99996
2018-03-24T00:57:11.717Z,100000
2018-03-24T00:58:55.009Z,99996
2018-03-24T01:00:38.896Z,99991
2018-03-24T01:02:22.001Z,99998
2018-03-24T01:04:05.114Z,100001
2018-03-24T01:05:48.230Z,99999
2018-03-24T01:07:31.343Z,99999
2018-03-24T01:09:14.905Z,100000
2018-03-24T01:10:58.034Z,99994
2018-03-24T01:12:41.148Z,99991
2018-03-24T01:14:24.260Z,99989
2018-03-24T01:16:07.364Z,99989
2018-03-24T01:17:50.468Z,99986
2018-03-24T01:19:33.607Z,99983
2018-03-24T01:21:16.734Z,99974
2018-03-24T01:22:59.846Z,99977
2018-03-24T01:24:43.059Z,99979
2018-03-24T01:26:26.197Z,99976
2018-03-24T01:28:10.078Z,99972
2018-03-24T01:29:53.238Z,99975
2018-03-24T01:31:36.350Z,99974
2018-03-24T01:33:19.468Z,99982
2018-03-24T01:35:02.724Z,99972
2018-03-24T01:36:45.988Z,99975
2018-03-24T01:38:29.116Z,99968
2018-03-24T01:40:12.233Z,99966
2018-03-24T01:41:55.464Z,99970
2018-03-24T01:43:38.672Z,99967
2018-03-24T01:45:21.810Z,99964
2018-03-24T01:47:05.702Z,99963
2018-03-24T01:48:48.854Z,99962
2018-03-24T01:50:32.081Z,99965
2018-03-24T01:52:15.948Z,99963
2018-03-24T01:53:59.096Z,99959
2018-03-24T01:55:42.311Z,99960
2018-03-24T01:57:25.427Z,99955
2018-03-24T01:59:08.534Z,99957
2018-03-24T02:00:51.655Z,99957
2018-03-24T02:02:34.780Z,99951
2018-03-24T02:04:17.881Z,99953
2018-03-24T02:06:01.022Z,99954
2018-03-24T02:07:44.128Z,99961
2018-03-24T02:09:27.234Z,99958
2018-03-24T02:11:10.342Z,99952
2018-03-24T02:12:53.452Z,99960
2018-03-24T02:14:36.557Z,99949
2018-03-24T02:16:19.716Z,99958
2018-03-24T02:18:02.940Z,99963
2018-03-24T02:19:46.195Z,99952
2018-03-24T02:21:29.324Z,99956
2018-03-24T02:23:12.446Z,99949
2018-03-24T02:24:58.052Z,99949
2018-03-24T02:26:41.173Z,99947
2018-03-24T02:28:24.276Z,99944
2018-03-24T02:30:08.156Z,99947
2018-03-24T02:31:52.026Z,99943
2018-03-24T02:33:35.129Z,99938
2018-03-24T02:35:18.250Z,99953
2018-03-24T02:37:01.362Z,99942
2018-03-24T02:38:44.529Z,99941
2018-03-24T02:40:27.660Z,99946
2018-03-24T02:42:11.616Z,99939
2018-03-24T02:43:54.731Z,99938
2018-03-24T02:45:38.628Z,99937
2018-03-24T02:47:21.743Z,99935
2018-03-24T02:49:04.840Z,99931
2018-03-24T02:50:47.957Z,99940
2018-03-24T02:52:31.073Z,99936
2018-03-24T02:54:14.211Z,99928
2018-03-24T02:55:57.359Z,99933
2018-03-24T02:57:41.238Z,99929
2018-03-24T02:59:24.348Z,99933
2018-03-24T03:01:07.489Z,99930
2018-03-24T03:02:50.616Z,99932
2018-03-24T03:04:33.744Z,99927
2018-03-24T03:06:16.994Z,99923
2018-03-24T03:08:00.121Z,99922
2018-03-24T03:09:43.296Z,99931
2018-03-24T03:11:26.516Z,99932
2018-03-24T03:13:09.683Z,99932
2018-03-24T03:14:52.954Z,99927
2018-03-24T03:16:36.148Z,99931
2018-03-24T03:18:19.430Z,99934
2018-03-24T03:20:02.584Z,99921
2018-03-24T03:21:53.997Z,99922
2018-03-24T03:23:37.112Z,99931
2018-03-24T03:25:20.220Z,99929
2018-03-24T03:27:03.365Z,99928
2018-03-24T03:28:46.509Z,99935
2018-03-24T03:30:36.010Z,99933
2018-03-24T03:32:19.205Z,99929
2018-03-24T03:34:02.348Z,99927
2018-03-24T03:35:45.668Z,99929
2018-03-24T03:37:28.786Z,99935
2018-03-24T03:39:11.940Z,99938
2018-03-24T03:40:55.140Z,99776
2018-03-24T03:42:38.243Z,99946
2018-03-24T03:44:21.361Z,99939
2018-03-24T03:46:04.476Z,99934
2018-03-24T03:47:47.629Z,99931
2018-03-24T03:49:31.508Z,99934
2018-03-24T03:51:14.661Z,99935
2018-03-24T03:52:57.783Z,99930
2018-03-24T03:54:40.914Z,99936
2018-03-24T03:56:24.875Z,99931
2018-03-24T03:58:07.990Z,99933
2018-03-24T03:59:51.098Z,99931
2018-03-24T04:01:35.082Z,99927
2018-03-24T04:03:18.191Z,99929
2018-03-24T04:05:01.307Z,99935
2018-03-24T04:06:44.430Z,99927
2018-03-24T04:08:27.621Z,99930
2018-03-24T04:10:11.622Z,99942
2018-03-24T04:11:55.518Z,99941
2018-03-24T04:13:38.687Z,99935
2018-03-24T04:15:21.836Z,99930
2018-03-24T04:17:04.972Z,99929
2018-03-24T04:18:48.067Z,99930
2018-03-24T04:20:31.331Z,99931
2018-03-24T04:22:14.575Z,99937
2018-03-24T04:23:58.471Z,99928
2018-03-24T04:25:41.580Z,99927
2018-03-24T04:27:24.725Z,99934
2018-03-24T04:29:07.937Z,99932
2018-03-24T04:30:51.864Z,99928
2018-03-24T04:32:35.080Z,99931
2018-03-24T04:34:18.337Z,99933
2018-03-24T04:36:01.560Z,99934
2018-03-24T04:37:44.736Z,99924
2018-03-24T04:39:27.955Z,99932
2018-03-24T04:41:11.830Z,99933
2018-03-24T04:42:55.130Z,99931
2018-03-24T04:44:39.062Z,99930
2018-03-24T04:46:22.210Z,99922
2018-03-24T04:48:05.476Z,99924
2018-03-24T04:49:48.584Z,99924
2018-03-24T04:51:31.816Z,99933
2018-03-24T04:53:15.018Z,99927
2018-03-24T04:54:58.986Z,99929
2018-03-24T04:56:42.319Z,99935
2018-03-24T04:58:26.227Z,99935
2018-03-24T05:00:09.332Z,99944
2018-03-24T05:01:52.476Z,99943
2018-03-24T05:03:35.593Z,99947
2018-03-24T05:05:18.810Z,99945
2018-03-24T05:07:02.015Z,99943
2018-03-24T05:08:45.149Z,99951
2018-03-24T05:10:29.020Z,99946
2018-03-24T05:12:12.153Z,99942
2018-03-24T05:13:55.267Z,99950
2018-03-24T05:15:38.385Z,99951
2018-03-24T05:17:21.515Z,99943
2018-03-24T05:19:04.621Z,99949
2018-03-24T05:20:47.729Z,99952
2018-03-24T05:22:30.857Z,99955
2018-03-24T05:24:13.960Z,99952
2018-03-24T05:25:57.129Z,99955
2018-03-24T05:27:40.252Z,99955
2018-03-24T05:29:24.133Z,99952
2018-03-24T05:31:07.228Z,99954
2018-03-24T05:32:50.361Z,99950
2018-03-24T05:34:33.477Z,99952
2018-03-24T05:36:16.580Z,99951
2018-03-24T05:37:59.700Z,99957
2018-03-24T05:39:42.813Z,99958
2018-03-24T05:41:25.955Z,99956
2018-03-24T05:43:09.077Z,99957
2018-03-24T05:44:52.945Z,99962
2018-03-24T05:46:36.046Z,99956
2018-03-24T05:48:19.181Z,99962
2018-03-24T05:50:03.040Z,99963
2018-03-24T05:51:46.170Z,99960
2018-03-24T05:53:29.304Z,99963
2018-03-24T05:55:12.430Z,99954
2018-03-24T05:56:55.549Z,99966
2018-03-24T05:58:38.675Z,99968
2018-03-24T06:00:21.788Z,99968
2018-03-24T06:02:04.977Z,99980
2018-03-24T06:03:48.121Z,99975
2018-03-24T06:05:31.236Z,99976
2018-03-24T06:07:14.405Z,99970
2018-03-24T06:08:57.514Z,99975
2018-03-24T06:10:40.619Z,99976
2018-03-24T06:12:24.507Z,99976
2018-03-24T06:14:07.612Z,99975
2018-03-24T06:15:50.721Z,99982
2018-03-24T06:17:33.869Z,99978
2018-03-24T06:19:17.013Z,99990
2018-03-24T06:21:00.884Z,99989
2018-03-24T06:22:43.995Z,99989
2018-03-24T06:24:27.109Z,99981
2018-03-24T06:26:10.290Z,99985
2018-03-24T06:27:53.479Z,99986
2018-03-24T06:29:36.615Z,99994
2018-03-24T06:31:20.658Z,99994
2018-03-24T06:33:03.780Z,99992
2018-03-24T06:34:46.897Z,99994
2018-03-24T06:36:30.788Z,99994
2018-03-24T06:38:13.919Z,99992
2018-03-24T06:39:57.034Z,100002
2018-03-24T06:41:40.166Z,99996
2018-03-24T06:43:23.304Z,99997
2018-03-24T06:45:07.177Z,99998
2018-03-24T06:46:50.300Z,99992
2018-03-24T06:48:33.432Z,99996
2018-03-24T06:50:16.546Z,100000
2018-03-24T06:51:59.681Z,99989
2018-03-24T06:53:42.817Z,100002
2018-03-24T06:55:25.957Z,99995
2018-03-24T06:57:09.836Z,100004
2018-03-24T06:58:52.986Z,100004
2018-03-24T07:00:36.950Z,100005
2018-03-24T07:02:20.836Z,100010
2018-03-24T07:04:03.953Z,100018
2018-03-24T07:05:47.068Z,100003
2018-03-24T07:07:30.275Z,100011
2018-03-24T07:09:13.418Z,100004
2018-03-24T07:10:56.539Z,100003
2018-03-24T07:12:40.424Z,100000
2018-03-24T07:14:23.573Z,99999
2018-03-24T07:16:06.813Z,100012
2018-03-24T07:17:50.716Z,100016
2018-03-24T07:19:33.945Z,100014
2018-03-24T07:21:17.148Z,100010
2018-03-24T07:23:00.977Z,100014
2018-03-24T07:24:44.113Z,100010
2018-03-24T07:26:27.255Z,100017
2018-03-24T07:28:11.138Z,100009
2018-03-24T07:29:54.281Z,100018
2018-03-24T07:31:37.392Z,100019
2018-03-24T07:33:20.635Z,100018
2018-03-24T07:35:04.525Z,100020
2018-03-24T07:36:47.645Z,100020
2018-03-24T07:38:30.779Z,100022
2018-03-24T07:40:13.980Z,100022
2018-03-24T07:41:57.131Z,100027
2018-03-24T07:43:40.307Z,100030
2018-03-24T07:45:23.452Z,100025
2018-03-24T07:47:06.560Z,100035
2018-03-24T07:48:49.692Z,100035
2018-03-24T07:50:32.828Z,100035
2018-03-24T07:52:16.733Z,100023
2018-03-24T07:53:59.875Z,100030
2018-03-24T07:55:43.757Z,100029
2018-03-24T07:57:26.898Z,100031
2018-03-24T07:59:10.038Z,100037
2018-03-24T08:00:53.920Z,100034
2018-03-24T08:02:37.052Z,100038
2018-03-24T08:04:20.176Z,100032
2018-03-24T08:06:03.328Z,100039
2018-03-24T08:07:47.216Z,100044
2018-03-24T08:09:30.335Z,100049
2018-03-24T08:11:13.453Z,100047
2018-03-24T08:12:56.575Z,100040
2018-03-24T08:14:39.717Z,100046
2018-03-24T08:16:22.930Z,100045
2018-03-24T08:18:06.077Z,100053
2018-03-24T08:19:49.213Z,100049
2018-03-24T08:21:32.417Z,100043
2018-03-24T08:23:15.544Z,100052
2018-03-24T08:24:58.666Z,100050
2018-03-24T08:26:41.790Z,100053
2018-03-24T08:28:24.909Z,100056
2018-03-24T08:30:08.076Z,100058
2018-03-24T08:31:51.979Z,100060
2018-03-24T08:33:35.092Z,100051
2018-03-24T08:35:18.209Z,100050
2018-03-24T08:37:01.336Z,100062
2018-03-24T08:38:44.444Z,100052
2018-03-24T08:40:27.579Z,100052
2018-03-24T08:42:11.518Z,100054
2018-03-24T08:43:54.742Z,100059
2018-03-24T08:45:37.872Z,100045
2018-03-24T08:47:21.786Z,100052
2018-03-24T08:49:04.916Z,100058
2018-03-24T08:50:48.808Z,100058
2018-03-24T08:52:31.937Z,100076
2018-03-24T08:54:15.060Z,100059
2018-03-24T08:55:58.995Z,100073
2018-03-24T08:57:42.135Z,100075
2018-03-24T08:59:26.013Z,100076
2018-03-24T09:01:09.254Z,100066
2018-03-24T09:02:52.387Z,100064
2018-03-24T09:04:35.617Z,100073
2018-03-24T09:06:19.541Z,100075
2018-03-24T09:08:02.745Z,100067
2018-03-24T09:09:45.877Z,100060
2018-03-24T09:11:29.089Z,100063
2018-03-24T09:13:12.197Z,100068
2018-03-24T09:14:55.426Z,100073
2018-03-24T09:16:38.654Z,100074
2018-03-24T09:18:22.547Z,100067
2018-03-24T09:20:05.693Z,100074
2018-03-24T09:21:48.861Z,100074
2018-03-24T09:23:31.981Z,100076
2018-03-24T09:25:15.150Z,100069
2018-03-24T09:26:58.380Z,100068
2018-03-24T09:28:42.251Z,100076
2018-03-24T09:30:25.384Z,100059
2018-03-24T09:32:08.516Z,100073
2018-03-24T09:33:51.651Z,100060
2018-03-24T09:35:34.795Z,100081
2018-03-24T09:37:18.686Z,100073
2018-03-24T09:39:01.833Z,100064
2018-03-24T09:40:45.777Z,100058
2018-03-24T09:42:29.663Z,100054
2018-03-24T09:44:12.794Z,100054
2018-03-24T09:45:55.921Z,100061
2018-03-24T09:47:39.041Z,100056
2018-03-24T09:49:22.192Z,100057
2018-03-24T09:51:05.325Z,100060
2018-03-24T09:52:48.497Z,100053
2018-03-24T09:54:31.573Z,100053
2018-03-24T09:56:14.713Z,100055
2018-03-24T09:57:57.939Z,100052
2018-03-24T09:59:41.072Z,100054
2018-03-24T10:01:24.974Z,100057
2018-03-24T10:03:08.113Z,100057
2018-03-24T10:04:51.233Z,100063
2018-03-24T10:06:34.365Z,100043
2018-03-24T10:08:18.257Z,100045
2018-03-24T10:10:01.395Z,100050
2018-03-24T10:11:45.317Z,100048
2018-03-24T10:13:28.433Z,100049
2018-03-24T10:15:11.566Z,100045
2018-03-24T10:16:54.697Z,100052
2018-03-24T10:18:38.590Z,100041
2018-03-24T10:20:21.732Z,100033
2018-03-24T10:24:30.371Z,100032
2018-03-24T10:26:14.305Z,100036
2018-03-24T10:27:57.433Z,100028
2018-03-24T10:29:41.357Z,100036
2018-03-24T10:31:25.265Z,100032
2018-03-24T10:33:08.397Z,100035
2018-03-24T10:34:57.080Z,100026
2018-03-24T10:36:40.263Z,100032
2018-03-24T10:38:23.384Z,100037
2018-03-24T10:40:06.553Z,100030
2018-03-24T10:41:49.718Z,100038
2018-03-24T10:43:38.506Z,100037
2018-03-24T10:45:21.645Z,100043
2018-03-24T10:47:04.784Z,100049
2018-03-24T10:48:48.003Z,100041
2018-03-24T10:50:31.841Z,100043
2018-03-24T10:52:14.984Z,100039
2018-03-24T10:53:58.877Z,100027
2018-03-24T10:55:42.142Z,100037
2018-03-24T10:57:25.301Z,100042
2018-03-24T10:59:08.524Z,100042
2018-03-24T11:00:57.391Z,100044
2018-03-24T11:02:40.564Z,100050
2018-03-24T11:04:23.709Z,100044
2018-03-24T11:06:06.874Z,100039
2018-03-24T11:07:51.048Z,100037
2018-03-24T11:09:34.262Z,100042
2018-03-24T11:11:17.416Z,100042
2018-03-24T11:13:00.569Z,100038
2018-03-24T11:14:44.485Z,100049
2018-03-24T11:16:27.645Z,100036
2018-03-24T11:18:10.796Z,100046
2018-03-24T11:19:53.963Z,100054
2018-03-24T11:21:37.070Z,100040
2018-03-24T11:23:21.071Z,100043
2018-03-24T11:25:04.212Z,100036
2018-03-24T11:26:47.328Z,100028
2018-03-24T11:28:31.264Z,100029
2018-03-24T11:30:14.398Z,100031
2018-03-24T11:31:58.341Z,100027
2018-03-24T11:33:42.217Z,100033
2018-03-24T11:35:25.471Z,100016
2018-03-24T11:37:08.672Z,100028
2018-03-24T11:38:51.836Z,100033
2018-03-24T11:40:35.684Z,100020
2018-03-24T11:42:18.812Z,100027
2018-03-24T11:44:01.944Z,100030
2018-03-24T11:45:45.133Z,100034
2018-03-24T11:47:28.301Z,100031
2018-03-24T11:49:12.206Z,100040
2018-03-24T11:50:56.186Z,100039
2018-03-24T11:52:40.871Z,100044
2018-03-24T11:54:42.113Z,100039
2018-03-24T11:56:25.268Z,100042
2018-03-24T11:58:08.423Z,100037
2018-03-24T11:59:52.347Z,100037
2018-03-24T12:01:35.501Z,100037
2018-03-24T12:03:18.650Z,100040
2018-03-24T12:05:01.756Z,100042
2018-03-24T12:06:44.872Z,100031
2018-03-24T12:08:28.011Z,100032
2018-03-24T12:10:11.247Z,100031
2018-03-24T12:11:54.366Z,100036
2018-03-24T12:13:38.714Z,100031
2018-03-24T12:15:22.078Z,100032
2018-03-24T12:17:05.498Z,100027
2018-03-24T12:18:48.961Z,100025
2018-03-24T12:20:32.522Z,100032
2018-03-24T12:22:22.708Z,100029
2018-03-24T12:24:06.128Z,100029
2018-03-24T12:25:49.648Z,100031
2018-03-24T12:27:33.059Z,100024
2018-03-24T12:29:17.528Z,100027
2018-03-24T12:31:01.795Z,100030
2018-03-24T12:32:45.204Z,100023
2018-03-24T12:34:28.526Z,100022
2018-03-24T12:36:11.780Z,100023
2018-03-24T12:37:55.238Z,100021
2018-03-24T12:39:39.848Z,100016
2018-03-24T12:41:23.417Z,100019
2018-03-24T12:43:06.884Z,100019
2018-03-24T12:44:50.429Z,100009
2018-03-24T12:46:34.589Z,100024
2018-03-24T12:48:18.479Z,100008
2018-03-24T12:50:03.494Z,100025
2018-03-24T12:51:47.573Z,100034
2018-03-24T12:53:30.904Z,100029
2018-03-24T12:55:14.379Z,100030
2018-03-24T12:56:58.627Z,100029
2018-03-24T12:58:42.151Z,100019
2018-03-24T13:00:25.589Z,100022
2018-03-24T13:02:09.096Z,100022
2018-03-24T13:03:52.376Z,100024
2018-03-24T13:05:36.256Z,100027
2018-03-24T13:07:19.784Z,100023
2018-03-24T13:09:03.306Z,100017
2018-03-24T13:10:46.783Z,100034
2018-03-24T13:12:30.416Z,100021
2018-03-24T13:14:13.807Z,100021
2018-03-24T13:15:57.179Z,100029
2018-03-24T13:17:40.305Z,100037
2018-03-24T13:19:23.523Z,100031
2018-03-24T13:21:06.670Z,100036
2018-03-24T13:22:50.585Z,100033
2018-03-24T13:24:35.213Z,100031
2018-03-24T13:26:18.413Z,100035
2018-03-24T13:28:01.544Z,100038
2018-03-24T13:29:44.775Z,100048
2018-03-24T13:31:28.018Z,100039
2018-03-24T13:33:11.951Z,100043
2018-03-24T13:34:55.072Z,100036
2018-03-24T13:36:38.389Z,100037
2018-03-24T13:38:22.298Z,100036
2018-03-24T13:40:05.467Z,100030
2018-03-24T13:41:48.653Z,100040
2018-03-24T13:43:31.777Z,100045
2018-03-24T13:45:16.321Z,100026
2018-03-24T13:47:00.213Z,100025
2018-03-24T13:48:43.340Z,100026
2018-03-24T13:50:26.487Z,100027
2018-03-24T13:52:10.382Z,100032
2018-03-24T13:53:53.524Z,100045
2018-03-24T13:55:36.677Z,100047
2018-03-24T13:57:20.657Z,100046
2018-03-24T13:59:03.796Z,100033
2018-03-24T14:00:47.008Z,100042
2018-03-24T14:02:30.135Z,100046
2018-03-24T14:04:13.257Z,100047
2018-03-24T14:05:57.911Z,100043
2018-03-24T14:07:42.545Z,100047
2018-03-24T14:09:25.765Z,100047
2018-03-24T14:11:09.672Z,100038
2018-03-24T14:12:52.901Z,100038
2018-03-24T14:14:36.031Z,100044
2018-03-24T14:16:19.282Z,100037
2018-03-24T14:18:03.173Z,100038
2018-03-24T14:19:46.325Z,100037
2018-03-24T14:21:30.229Z,100032
2018-03-24T14:23:13.452Z,100034
2018-03-24T14:24:56.586Z,100033
2018-03-24T14:26:41.223Z,100025
2018-03-24T14:28:24.377Z,100019
2018-03-24T14:30:08.293Z,100015
2018-03-24T14:31:51.497Z,100022
2018-03-24T14:33:34.638Z,100014
2018-03-24T14:35:18.564Z,100023
2018-03-24T14:37:04.395Z,100020
2018-03-24T14:38:47.526Z,100020
2018-03-24T14:40:30.658Z,100024
2018-03-24T14:42:13.816Z,100019
2018-03-24T14:43:57.724Z,100014
2018-03-24T14:45:40.910Z,100018
2018-03-24T14:47:24.001Z,100016
2018-03-24T14:49:07.108Z,100028
2018-03-24T14:50:50.225Z,100019
2018-03-24T14:52:33.354Z,100020
2018-03-24T14:54:16.516Z,100021
2018-03-24T14:55:59.691Z,100014
2018-03-24T14:57:42.844Z,100018
2018-03-24T14:59:25.986Z,100016
2018-03-24T15:01:09.868Z,100009
2018-03-24T15:02:53.123Z,100015
2018-03-24T15:04:36.244Z,100009
2018-03-24T15:06:19.466Z,100011
2018-03-24T15:08:02.695Z,100013
2018-03-24T15:09:46.589Z,100009
2018-03-24T15:11:29.732Z,100004
2018-03-24T15:13:12.942Z,100003
2018-03-24T15:14:56.891Z,100004
2018-03-24T15:16:41.092Z,100000
2018-03-24T15:18:24.240Z,100004
2018-03-24T15:20:07.390Z,100006
2018-03-24T15:21:51.323Z,100003
2018-03-24T15:23:35.244Z,100004
2018-03-24T15:25:19.166Z,100002
2018-03-24T15:27:02.312Z,100006
2018-03-24T15:29:04.274Z,100014
2018-03-24T15:31:05.200Z,100009
2018-03-24T15:32:54.724Z,100017
2018-03-24T15:34:55.886Z,100013
2018-03-24T15:36:45.538Z,100012
2018-03-24T15:38:28.766Z,100008
2018-03-24T15:40:11.901Z,100005
2018-03-24T15:41:55.816Z,100007
2018-03-24T15:43:38.955Z,100000
2018-03-24T15:45:22.828Z,100012
2018-03-24T15:47:05.943Z,100008
2018-03-24T15:48:49.066Z,100016
2018-03-24T15:50:32.192Z,100012
2018-03-24T15:52:15.305Z,100010
2018-03-24T15:53:58.439Z,100017
2018-03-24T15:55:41.602Z,100020
2018-03-24T15:57:24.747Z,100012
2018-03-24T15:59:07.873Z,100015
2018-03-24T16:00:51.034Z,100025
2018-03-24T16:02:35.041Z,100024
2018-03-24T16:04:18.292Z,100013
2018-03-24T16:06:02.175Z,100017
2018-03-24T16:07:45.288Z,100017
2018-03-24T16:09:28.418Z,100016
2018-03-24T16:11:11.585Z,100013
2018-03-24T16:12:55.659Z,100015
2018-03-24T16:14:39.511Z,100016
2018-03-24T16:16:22.625Z,100017
2018-03-24T16:18:05.777Z,100011
2018-03-24T16:19:49.700Z,100008
2018-03-24T16:21:32.810Z,100011
2018-03-24T16:23:15.958Z,100019
2018-03-24T16:24:59.874Z,100013
2018-03-24T16:26:43.064Z,100016
2018-03-24T16:28:26.184Z,100023
2018-03-24T16:30:09.302Z,100021
2018-03-24T16:31:52.426Z,100019
2018-03-24T16:33:35.563Z,100019
2018-03-24T16:35:18.773Z,100019
2018-03-24T16:37:01.912Z,100017
2018-03-24T16:38:45.855Z,100018
2018-03-24T16:40:28.981Z,100024
2018-03-24T16:42:12.109Z,100023
2018-03-24T16:43:55.251Z,100020
2018-03-24T16:45:38.368Z,100025
2018-03-24T16:47:21.478Z,100034
2018-03-24T16:49:05.393Z,100033
2018-03-24T16:50:48.512Z,100034
2018-03-24T16:52:31.631Z,100032
2018-03-24T16:54:14.782Z,100038
2018-03-24T16:55:58.012Z,100037
2018-03-24T16:57:41.122Z,100039
2018-03-24T16:59:24.356Z,100040
2018-03-24T17:01:07.469Z,100040
2018-03-24T17:02:50.580Z,100045
2018-03-24T17:04:34.493Z,100046
2018-03-24T17:06:17.800Z,100040
2018-03-24T17:08:00.920Z,100035
2018-03-24T17:09:44.069Z,100041
2018-03-24T17:11:27.184Z,100014
2018-03-24T17:13:10.306Z,100038
2018-03-24T17:14:53.745Z,100039
2018-03-24T17:16:37.630Z,100047
2018-03-24T17:18:21.553Z,100042
2018-03-24T17:20:04.754Z,100045
2018-03-24T17:21:47.932Z,100056
2018-03-24T17:23:31.162Z,100051
2018-03-24T17:25:15.076Z,100055
2018-03-24T17:26:58.214Z,100061
2018-03-24T17:28:42.455Z,100057
2018-03-24T17:30:25.676Z,100052
2018-03-24T17:32:09.579Z,100051
2018-03-24T17:33:52.830Z,100055
2018-03-24T17:35:36.761Z,100062
2018-03-24T17:37:20.676Z,100058
2018-03-24T17:39:03.786Z,100065
2018-03-24T17:40:46.933Z,100055
2018-03-24T17:42:30.835Z,100062
2018-03-24T17:44:14.184Z,100059
2018-03-24T17:45:58.079Z,100061
2018-03-24T17:47:41.236Z,100065
2018-03-24T17:49:25.176Z,100064
2018-03-24T17:51:09.101Z,100060
2018-03-24T17:52:52.989Z,100059
2018-03-24T17:54:36.113Z,100067
2018-03-24T17:56:19.259Z,100064
2018-03-24T17:58:02.508Z,100059
2018-03-24T17:59:46.417Z,100060
2018-03-24T18:01:29.651Z,100073
2018-03-24T18:03:13.520Z,100075
2018-03-24T18:04:56.690Z,100067
2018-03-24T18:06:39.822Z,100070
2018-03-24T18:08:23.739Z,100073
2018-03-24T18:10:06.881Z,100067
2018-03-24T18:11:50.029Z,100070
2018-03-24T18:13:33.193Z,100076
2018-03-24T18:15:16.303Z,100058
2018-03-24T18:16:59.426Z,100077
2018-03-24T18:18:42.541Z,100077
2018-03-24T18:20:25.680Z,100074
2018-03-24T18:22:09.563Z,100070
2018-03-24T18:23:52.702Z,100081
2018-03-24T18:25:35.928Z,100081
2018-03-24T18:27:19.105Z,100086
2018-03-24T18:29:02.236Z,100083
2018-03-24T18:30:45.352Z,100088
2018-03-24T18:32:28.576Z,100085
2018-03-24T18:34:11.704Z,100089
2018-03-24T18:35:54.824Z,100094
2018-03-24T18:37:37.982Z,100108
2018-03-24T18:39:21.093Z,100098
2018-03-24T18:41:04.993Z,100097
2018-03-24T18:42:48.118Z,100093
2018-03-24T18:44:31.293Z,100099
2018-03-24T18:46:14.417Z,100096
2018-03-24T18:47:57.678Z,100102
2018-03-24T18:49:41.570Z,100104
2018-03-24T18:51:24.715Z,100108
2018-03-24T18:53:07.885Z,100109
2018-03-24T18:54:51.024Z,100101
2018-03-24T18:56:34.275Z,100094
2018-03-24T18:58:17.386Z,100102
2018-03-24T19:00:00.592Z,100103
2018-03-24T19:01:43.836Z,100100
2018-03-24T19:03:27.779Z,100097
2018-03-24T19:05:11.673Z,100102
2018-03-24T19:06:54.806Z,100104
2018-03-24T19:08:37.975Z,100102
2018-03-24T19:10:21.093Z,100104
2018-03-24T19:12:04.222Z,100108
2018-03-24T19:13:47.377Z,100110
2018-03-24T19:15:30.518Z,100106
2018-03-24T19:17:14.466Z,100104
2018-03-24T19:18:57.593Z,100103
2018-03-24T19:20:40.753Z,100111
2018-03-24T19:22:23.894Z,100098
2018-03-24T19:24:08.065Z,100099
2018-03-24T19:25:51.202Z,100106
2018-03-24T19:27:34.369Z,100102
2018-03-24T19:29:18.258Z,100108
2018-03-24T19:31:01.370Z,100099
2018-03-24T19:32:44.532Z,100106
2018-03-24T19:34:28.414Z,100100
2018-03-24T19:36:11.532Z,100098
2018-03-24T19:37:54.682Z,100098
2018-03-24T19:39:37.805Z,100101
2018-03-24T19:41:20.939Z,100105
2018-03-24T19:43:04.847Z,100097
2018-03-24T19:44:47.989Z,100100
2018-03-24T19:46:31.911Z,100109
2018-03-24T19:48:15.142Z,100101
2018-03-24T19:49:59.091Z,100100
2018-03-24T19:51:42.973Z,100104
2018-03-24T19:53:26.143Z,100103
2018-03-24T19:55:09.354Z,100103
2018-03-24T19:56:53.245Z,100113
2018-03-24T19:58:36.480Z,100110
2018-03-24T20:00:19.622Z,100108
2018-03-24T20:02:03.522Z,100103
2018-03-24T20:03:46.678Z,100109
2018-03-24T20:05:30.569Z,100102
2018-03-24T20:07:13.687Z,100102
2018-03-24T20:08:56.810Z,100104
2018-03-24T20:10:39.936Z,100115
2018-03-24T20:12:23.061Z,100106
2018-03-24T20:14:06.210Z,100105
2018-03-24T20:15:49.372Z,100104
2018-03-24T20:17:32.497Z,100108
2018-03-24T20:19:15.644Z,100106
2018-03-24T20:20:59.553Z,100111
2018-03-24T20:22:42.687Z,100108
2018-03-24T20:24:25.817Z,100114
2018-03-24T20:26:09.712Z,100112
2018-03-24T20:27:52.832Z,100106
2018-03-24T20:29:35.978Z,100115
2018-03-24T20:31:19.118Z,100110
2018-03-24T20:33:02.531Z,100103
2018-03-24T20:34:46.405Z,100103
2018-03-24T20:36:29.545Z,100105
2018-03-24T20:38:12.698Z,100097
2018-03-24T20:39:56.600Z,100104
2018-03-24T20:41:39.748Z,100105
2018-03-24T20:43:23.677Z,100097
2018-03-24T20:45:07.598Z,100103
2018-03-24T20:46:50.719Z,100109
2018-03-24T20:48:34.616Z,100110
2018-03-24T20:50:17.734Z,100108
2018-03-24T20:52:00.865Z,100111
2018-03-24T20:53:44.102Z,100105
2018-03-24T20:55:28.003Z,100108
2018-03-24T20:57:11.161Z,100108
2018-03-24T20:58:55.220Z,100107
2018-03-24T21:00:38.410Z,100118
2018-03-24T21:02:22.308Z,100110
2018-03-24T21:04:05.449Z,100114
2018-03-24T21:05:48.590Z,100115
2018-03-24T21:07:32.494Z,100120
2018-03-24T21:09:15.636Z,100125
2018-03-24T21:10:59.569Z,100122
2018-03-24T21:12:43.473Z,100122
2018-03-24T21:14:26.601Z,100119
2018-03-24T21:16:09.722Z,100122
2018-03-24T21:17:53.656Z,100118
2018-03-24T21:19:36.841Z,100114
2018-03-24T21:21:19.961Z,100126
2018-03-24T21:23:03.192Z,100124
2018-03-24T21:24:46.336Z,100121
2018-03-24T21:26:29.486Z,100120
2018-03-24T21:28:12.617Z,100117
2018-03-24T21:29:55.749Z,100126
2018-03-24T21:31:38.872Z,100126
2018-03-24T21:33:22.848Z,100119
2018-03-24T21:35:06.783Z,100127
2018-03-24T21:36:54.357Z,100127
2018-03-24T21:38:37.499Z,100129
2018-03-24T21:40:20.716Z,100121
2018-03-24T21:42:03.842Z,100125
2018-03-24T21:43:47.038Z,100112